Guadalupe — WDG4275 — position and weather

sailwx.info

Track history (hours):
 
Tides and Currents Weather Stations Pressure Air Temp Water Temp Dewpoint Dewpoint Depression Visibility Wind Speed Wind Dir Waves Ship Positions

Guadalupe

Owner: Kirby Inland Marine, LP, Houston, TX. More information available from US FCC via Universal Licensing System and Coast Guard Vessel Documentation Center.

Last reported at 2017-Oct-18 00:00 UTC. Time now 2017-Oct-18 00:11 UTC.
Position N 29°45' W 095°06'.

Length 27 m; draft 3 m.

Type: . MMSI: 367534840.

Date/timePositionNaut miles runAvg speedWind from/ knotsBaromVisibWave heightAir tempDewpointWater temp
2017-Oct-18 00:00N 29°45' W 095°06'0 0.0
2017-Oct-17 23:22N 29°45' W 095°06'0 0.0
2017-Oct-17 22:43N 29°45' W 095°06'0 0.0
2017-Oct-17 20:49N 29°45' W 095°06'2 3.5
2017-Oct-17 20:22N 29°44' W 095°07'2 4.9
2017-Oct-17 20:00N 29°44' W 095°09'2 4.9
2017-Oct-17 19:30N 29°45' W 095°12'2 3.1
2017-Oct-17 18:53N 29°44' W 095°14'0 0.0
2017-Oct-17 15:42N 29°44' W 095°14'0 0.0
2017-Oct-17 14:48N 29°44' W 095°14'0 0.0
2017-Oct-17 13:00N 29°44' W 095°14'0 0.0
2017-Oct-17 12:27N 29°44' W 095°14'0 0.0
2017-Oct-17 12:00N 29°44' W 095°14'0 0.0
2017-Oct-17 11:09N 29°44' W 095°14'0 0.0
2017-Oct-17 10:57N 29°44' W 095°14'0 0.0
2017-Oct-17 10:21N 29°44' W 095°14'0 0.0
2017-Oct-17 10:00N 29°44' W 095°14'0 0.0
2017-Oct-17 09:30N 29°44' W 095°14'0 0.0
2017-Oct-17 08:54N 29°44' W 095°14'0 0.0
2017-Oct-17 08:30N 29°44' W 095°14'0 0.0
2017-Oct-17 07:54N 29°44' W 095°14'0 0.0
2017-Oct-17 07:18N 29°44' W 095°14'0 0.0
2017-Oct-17 07:00N 29°44' W 095°14'0 0.0
2017-Oct-17 06:21N 29°44' W 095°14'0 0.0
2017-Oct-17 06:00N 29°44' W 095°14'0 0.0
2017-Oct-17 05:24N 29°44' W 095°14'0 0.0
2017-Oct-17 05:00N 29°44' W 095°14'0 0.0
2017-Oct-17 04:30N 29°44' W 095°14'0 0.0
2017-Oct-17 03:12N 29°44' W 095°14'0 0.0
2017-Oct-17 03:00N 29°44' W 095°14'0 0.0
2017-Oct-17 01:39N 29°44' W 095°14'0 0.0
2017-Oct-17 01:27N 29°44' W 095°14'0 0.1
2017-Oct-17 01:00N 29°44' W 095°14'0 0.0
2017-Oct-17 00:25N 29°44' W 095°14'1 2.9
2017-Oct-16 23:56N 29°44' W 095°12'3 6.1
2017-Oct-16 23:29N 29°44' W 095°09'3 5.9
2017-Oct-16 22:55N 29°45' W 095°06'0 0.3
2017-Oct-16 22:30N 29°46' W 095°06'0 0.0
2017-Oct-16 09:56N 29°45' W 095°06'1 1.2
2017-Oct-16 09:31N 29°46' W 095°05'0 0.0
2017-Oct-16 08:12N 29°46' W 095°05'0 0.3
2017-Oct-16 06:51N 29°46' W 095°06'0 0.0
2017-Oct-16 03:03N 29°46' W 095°06'0 0.0
2017-Oct-16 02:57N 29°46' W 095°06'0 0.0
2017-Oct-16 02:24N 29°46' W 095°06'0 0.0
2017-Oct-16 01:48N 29°46' W 095°06'0 0.0
2017-Oct-16 01:27N 29°46' W 095°06'0 0.0
2017-Oct-16 01:00N 29°46' W 095°06'0 0.0
2017-Oct-15 23:42N 29°46' W 095°06'0 0.0
2017-Oct-15 23:24N 29°46' W 095°06'0 0.0
2017-Oct-15 22:42N 29°46' W 095°06'0 0.0
2017-Oct-15 21:03N 29°46' W 095°06'0 0.0
2017-Oct-15 20:57N 29°46' W 095°06'0 0.0
2017-Oct-15 20:27N 29°46' W 095°06'0 0.0
2017-Oct-15 19:48N 29°46' W 095°06'0 0.0
2017-Oct-15 19:12N 29°46' W 095°06'0 0.0
2017-Oct-15 18:54N 29°46' W 095°06'0 0.0
2017-Oct-15 15:51N 29°46' W 095°06'0 0.0
2017-Oct-15 10:54N 29°46' W 095°06'0 0.0
2017-Oct-15 10:16N 29°46' W 095°06'0 0.1
2017-Oct-15 09:55N 29°46' W 095°06'0 0.1
2017-Oct-15 09:31N 29°46' W 095°06'1 1.0
2017-Oct-15 08:53N 29°45' W 095°06'0 1.1
2017-Oct-15 08:30N 29°45' W 095°06'0 0.0
2017-Oct-15 04:41N 29°45' W 095°06'0 0.0
2017-Oct-15 01:08N 29°45' W 095°06'0 0.0
2017-Oct-14 23:44N 29°45' W 095°06'0 0.0
2017-Oct-14 23:26N 29°45' W 095°06'0 0.0
2017-Oct-14 22:56N 29°45' W 095°06'0 0.0
2017-Oct-14 22:17N 29°45' W 095°06'0 0.0
2017-Oct-14 21:50N 29°45' W 095°06'0 0.0
2017-Oct-14 21:02N 29°45' W 095°06'0 0.0
2017-Oct-14 14:02N 29°45' W 095°06'0 0.0
2017-Oct-14 13:31N 29°45' W 095°06'0 0.0
2017-Oct-14 13:23N 29°45' W 095°06'0 0.0
2017-Oct-14 12:59N 29°45' W 095°06'1 1.0
2017-Oct-14 12:12N 29°45' W 095°06'0 0.9
2017-Oct-14 11:41N 29°46' W 095°05'0 0.0
2017-Oct-14 07:37N 29°46' W 095°05'1 1.0
2017-Oct-14 07:07N 29°45' W 095°06'0 0.0
2017-Oct-14 06:25N 29°45' W 095°06'0 0.0
2017-Oct-14 05:58N 29°45' W 095°06'0 0.0
2017-Oct-14 05:22N 29°45' W 095°06'0 0.0
2017-Oct-14 04:58N 29°45' W 095°06'0 0.0
2017-Oct-14 04:28N 29°45' W 095°06'0 0.0
2017-Oct-14 03:40N 29°45' W 095°06'0 0.0
2017-Oct-14 03:04N 29°45' W 095°06'0 0.0
2017-Oct-14 02:49N 29°45' W 095°06'0 0.0
2017-Oct-14 02:28N 29°45' W 095°06'0 0.0
2017-Oct-13 22:53N 29°45' W 095°06'0 0.0
2017-Oct-13 14:37N 29°45' W 095°06'1 4.4
2017-Oct-13 14:30N 29°46' W 095°05'0 0.0
2017-Oct-13 11:28N 29°46' W 095°05'1 0.2
2017-Oct-13 08:43N 29°45' W 095°06'0 0.0
2017-Oct-13 08:28N 29°45' W 095°06'0 0.0
2017-Oct-13 07:04N 29°45' W 095°06'0 0.0
2017-Oct-13 06:43N 29°45' W 095°06'0 0.0
2017-Oct-13 06:13N 29°45' W 095°06'0 0.0
2017-Oct-13 05:58N 29°45' W 095°06'0 0.0
2017-Oct-13 05:28N 29°45' W 095°06'0 0.0
2017-Oct-13 04:52N 29°45' W 095°06'0 0.0
2017-Oct-12 23:56N 29°45' W 095°06'0 0.1
2017-Oct-12 23:30N 29°45' W 095°06'0 0.0
2017-Oct-12 22:24N 29°45' W 095°06'0 0.1
2017-Oct-12 18:19N 29°46' W 095°05'0 0.0
2017-Oct-12 16:04N 29°46' W 095°05'1 6.2
2017-Oct-12 15:52N 29°45' W 095°06'1 2.0
2017-Oct-12 15:12N 29°46' W 095°05'0 0.3
2017-Oct-12 14:26N 29°46' W 095°06'0 0.0
2017-Oct-12 13:24N 29°46' W 095°06'0 0.0
2017-Oct-12 12:43N 29°46' W 095°06'0 0.0
2017-Oct-12 12:22N 29°46' W 095°06'0 0.0
2017-Oct-12 10:42N 29°46' W 095°06'0 0.0
2017-Oct-12 10:30N 29°46' W 095°06'0 0.2
2017-Oct-12 09:39N 29°46' W 095°05'1 0.2
2017-Oct-12 06:48N 29°45' W 095°06'0 0.0
2017-Oct-12 06:24N 29°45' W 095°06'0 0.0
2017-Oct-12 06:00N 29°45' W 095°06'0 0.0
2017-Oct-12 05:21N 29°45' W 095°06'0 0.0
2017-Oct-12 05:00N 29°45' W 095°06'0 0.0
2017-Oct-12 04:27N 29°45' W 095°06'0 0.0
2017-Oct-12 04:00N 29°45' W 095°06'0 0.0
2017-Oct-12 03:27N 29°45' W 095°06'0 0.0
2017-Oct-12 02:54N 29°45' W 095°06'0 0.0
2017-Oct-12 02:18N 29°45' W 095°06'0 0.0
2017-Oct-12 01:57N 29°45' W 095°06'0 0.1
2017-Oct-12 00:57N 29°46' W 095°06'0 0.1
2017-Oct-11 19:54N 29°46' W 095°05'0 0.1
2017-Oct-11 18:48N 29°46' W 095°05'0 0.0
2017-Oct-10 10:57N 29°45' W 095°06'0 0.0
2017-Oct-10 10:24N 29°45' W 095°06'0 0.0
2017-Oct-10 09:57N 29°45' W 095°06'0 0.0
2017-Oct-10 01:04N 29°45' W 095°06'0 1.5
2017-Oct-10 00:58N 29°45' W 095°06'0 0.1
2017-Oct-09 23:57N 29°45' W 095°06'0 0.0
2017-Oct-09 23:15N 29°45' W 095°06'0 0.0
2017-Oct-09 22:30N 29°45' W 095°06'0 0.0
2017-Oct-09 18:48N 29°45' W 095°06'0 0.0
2017-Oct-09 16:00N 29°45' W 095°06'0 0.0
2017-Oct-09 14:18N 29°45' W 095°06'0 0.0
2017-Oct-09 13:39N 29°45' W 095°06'0 0.0
2017-Oct-09 13:27N 29°45' W 095°06'0 0.0
2017-Oct-09 12:54N 29°45' W 095°06'0 0.0
2017-Oct-09 12:06N 29°45' W 095°06'0 0.1
2017-Oct-09 12:00N 29°45' W 095°06'0 0.0
2017-Oct-09 11:27N 29°45' W 095°06'0 0.0
2017-Oct-09 10:18N 29°45' W 095°06'0 0.0
2017-Oct-09 09:54N 29°45' W 095°06'0 0.1
2017-Oct-09 09:08N 29°45' W 095°06'0 0.5
2017-Oct-09 09:00N 29°45' W 095°06'0 0.0
2017-Oct-09 08:27N 29°45' W 095°06'0 0.0
2017-Oct-09 07:51N 29°45' W 095°06'0 0.0
2017-Oct-09 07:30N 29°45' W 095°06'0 0.0
2017-Oct-09 07:00N 29°45' W 095°06'0 0.0
2017-Oct-09 06:30N 29°45' W 095°06'0 0.0
2017-Oct-09 06:00N 29°45' W 095°06'0 0.0
2017-Oct-09 05:30N 29°45' W 095°06'0 0.0
2017-Oct-09 04:54N 29°45' W 095°06'0 0.0
2017-Oct-09 04:30N 29°45' W 095°06'0 0.0
2017-Oct-09 04:00N 29°45' W 095°06'0 0.0
2017-Oct-09 03:27N 29°45' W 095°06'0 0.0
2017-Oct-09 03:00N 29°45' W 095°06'0 0.0
2017-Oct-09 02:30N 29°45' W 095°06'0 0.0
2017-Oct-09 02:00N 29°45' W 095°06'0 0.0
2017-Oct-09 01:30N 29°45' W 095°06'0 0.0
2017-Oct-09 01:00N 29°45' W 095°06'0 0.0
2017-Oct-09 00:27N 29°45' W 095°06'0 0.1
2017-Oct-09 00:00N 29°45' W 095°06'0 0.0
2017-Oct-08 22:30N 29°45' W 095°06'0 0.1
2017-Oct-08 22:00N 29°46' W 095°06'0 0.0
2017-Oct-08 19:07N 29°45' W 095°06'0 0.3
2017-Oct-08 18:58N 29°45' W 095°06'0 0.0
2017-Oct-08 13:46N 29°46' W 095°06'0 0.0
2017-Oct-08 04:13N 29°46' W 095°06'0 0.7
2017-Oct-08 04:00N 29°45' W 095°06'0 0.1
2017-Oct-08 02:43N 29°45' W 095°06'0 0.0
2017-Oct-08 02:28N 29°45' W 095°06'0 0.0
2017-Oct-08 00:46N 29°45' W 095°06'  
Track history (hours):
 
Tides and Currents Weather Stations Pressure Air Temp Water Temp Dewpoint Dewpoint Depression Visibility Wind Speed Wind Dir Waves Ship Positions

Guadalupe

Owner: Kirby Inland Marine, LP, Houston, TX. More information available from US FCC via Universal Licensing System and Coast Guard Vessel Documentation Center.

Last reported at 2017-Oct-18 00:00 UTC. Time now 2017-Oct-18 00:11 UTC.
Position N 29°45' W 095°06'.

Length 27 m; draft 3 m.

Type: . MMSI: 367534840.

Date/timePositionNaut miles runAvg speedWind from/ knotsBaromVisibWave heightAir tempDewpointWater temp
2017-Oct-18 00:00N 29°45' W 095°06'0 0.0
2017-Oct-17 23:22N 29°45' W 095°06'0 0.0
2017-Oct-17 22:43N 29°45' W 095°06'0 0.0
2017-Oct-17 20:49N 29°45' W 095°06'2 3.5
2017-Oct-17 20:22N 29°44' W 095°07'2 4.9
2017-Oct-17 20:00N 29°44' W 095°09'2 4.9
2017-Oct-17 19:30N 29°45' W 095°12'2 3.1
2017-Oct-17 18:53N 29°44' W 095°14'0 0.0
2017-Oct-17 15:42N 29°44' W 095°14'0 0.0
2017-Oct-17 14:48N 29°44' W 095°14'0 0.0
2017-Oct-17 13:00N 29°44' W 095°14'0 0.0
2017-Oct-17 12:27N 29°44' W 095°14'0 0.0
2017-Oct-17 12:00N 29°44' W 095°14'0 0.0
2017-Oct-17 11:09N 29°44' W 095°14'0 0.0
2017-Oct-17 10:57N 29°44' W 095°14'0 0.0
2017-Oct-17 10:21N 29°44' W 095°14'0 0.0
2017-Oct-17 10:00N 29°44' W 095°14'0 0.0
2017-Oct-17 09:30N 29°44' W 095°14'0 0.0
2017-Oct-17 08:54N 29°44' W 095°14'0 0.0
2017-Oct-17 08:30N 29°44' W 095°14'0 0.0
2017-Oct-17 07:54N 29°44' W 095°14'0 0.0
2017-Oct-17 07:18N 29°44' W 095°14'0 0.0
2017-Oct-17 07:00N 29°44' W 095°14'0 0.0
2017-Oct-17 06:21N 29°44' W 095°14'0 0.0
2017-Oct-17 06:00N 29°44' W 095°14'0 0.0
2017-Oct-17 05:24N 29°44' W 095°14'0 0.0
2017-Oct-17 05:00N 29°44' W 095°14'0 0.0
2017-Oct-17 04:30N 29°44' W 095°14'0 0.0
2017-Oct-17 03:12N 29°44' W 095°14'0 0.0
2017-Oct-17 03:00N 29°44' W 095°14'0 0.0
2017-Oct-17 01:39N 29°44' W 095°14'0 0.0
2017-Oct-17 01:27N 29°44' W 095°14'0 0.1
2017-Oct-17 01:00N 29°44' W 095°14'0 0.0
2017-Oct-17 00:25N 29°44' W 095°14'1 2.9
2017-Oct-16 23:56N 29°44' W 095°12'3 6.1
2017-Oct-16 23:29N 29°44' W 095°09'3 5.9
2017-Oct-16 22:55N 29°45' W 095°06'0 0.3
2017-Oct-16 22:30N 29°46' W 095°06'0 0.0
2017-Oct-16 09:56N 29°45' W 095°06'1 1.2
2017-Oct-16 09:31N 29°46' W 095°05'0 0.0
2017-Oct-16 08:12N 29°46' W 095°05'0 0.3
2017-Oct-16 06:51N 29°46' W 095°06'0 0.0
2017-Oct-16 03:03N 29°46' W 095°06'0 0.0
2017-Oct-16 02:57N 29°46' W 095°06'0 0.0
2017-Oct-16 02:24N 29°46' W 095°06'0 0.0
2017-Oct-16 01:48N 29°46' W 095°06'0 0.0
2017-Oct-16 01:27N 29°46' W 095°06'0 0.0
2017-Oct-16 01:00N 29°46' W 095°06'0 0.0
2017-Oct-15 23:42N 29°46' W 095°06'0 0.0
2017-Oct-15 23:24N 29°46' W 095°06'0 0.0
2017-Oct-15 22:42N 29°46' W 095°06'0 0.0
2017-Oct-15 21:03N 29°46' W 095°06'0 0.0
2017-Oct-15 20:57N 29°46' W 095°06'0 0.0
2017-Oct-15 20:27N 29°46' W 095°06'0 0.0
2017-Oct-15 19:48N 29°46' W 095°06'0 0.0
2017-Oct-15 19:12N 29°46' W 095°06'0 0.0
2017-Oct-15 18:54N 29°46' W 095°06'0 0.0
2017-Oct-15 15:51N 29°46' W 095°06'0 0.0
2017-Oct-15 10:54N 29°46' W 095°06'0 0.0
2017-Oct-15 10:16N 29°46' W 095°06'0 0.1
2017-Oct-15 09:55N 29°46' W 095°06'0 0.1
2017-Oct-15 09:31N 29°46' W 095°06'1 1.0
2017-Oct-15 08:53N 29°45' W 095°06'0 1.1
2017-Oct-15 08:30N 29°45' W 095°06'0 0.0
2017-Oct-15 04:41N 29°45' W 095°06'0 0.0
2017-Oct-15 01:08N 29°45' W 095°06'0 0.0
2017-Oct-14 23:44N 29°45' W 095°06'0 0.0
2017-Oct-14 23:26N 29°45' W 095°06'0 0.0
2017-Oct-14 22:56N 29°45' W 095°06'0 0.0
2017-Oct-14 22:17N 29°45' W 095°06'0 0.0
2017-Oct-14 21:50N 29°45' W 095°06'0 0.0
2017-Oct-14 21:02N 29°45' W 095°06'0 0.0
2017-Oct-14 14:02N 29°45' W 095°06'0 0.0
2017-Oct-14 13:31N 29°45' W 095°06'0 0.0
2017-Oct-14 13:23N 29°45' W 095°06'0 0.0
2017-Oct-14 12:59N 29°45' W 095°06'1 1.0
2017-Oct-14 12:12N 29°45' W 095°06'0 0.9
2017-Oct-14 11:41N 29°46' W 095°05'0 0.0
2017-Oct-14 07:37N 29°46' W 095°05'1 1.0
2017-Oct-14 07:07N 29°45' W 095°06'0 0.0
2017-Oct-14 06:25N 29°45' W 095°06'0 0.0
2017-Oct-14 05:58N 29°45' W 095°06'0 0.0
2017-Oct-14 05:22N 29°45' W 095°06'0 0.0
2017-Oct-14 04:58N 29°45' W 095°06'0 0.0
2017-Oct-14 04:28N 29°45' W 095°06'0 0.0
2017-Oct-14 03:40N 29°45' W 095°06'0 0.0
2017-Oct-14 03:04N 29°45' W 095°06'0 0.0
2017-Oct-14 02:49N 29°45' W 095°06'0 0.0
2017-Oct-14 02:28N 29°45' W 095°06'0 0.0
2017-Oct-13 22:53N 29°45' W 095°06'0 0.0
2017-Oct-13 14:37N 29°45' W 095°06'1 4.4
2017-Oct-13 14:30N 29°46' W 095°05'0 0.0
2017-Oct-13 11:28N 29°46' W 095°05'1 0.2
2017-Oct-13 08:43N 29°45' W 095°06'0 0.0
2017-Oct-13 08:28N 29°45' W 095°06'0 0.0
2017-Oct-13 07:04N 29°45' W 095°06'0 0.0
2017-Oct-13 06:43N 29°45' W 095°06'0 0.0
2017-Oct-13 06:13N 29°45' W 095°06'0 0.0
2017-Oct-13 05:58N 29°45' W 095°06'0 0.0
2017-Oct-13 05:28N 29°45' W 095°06'0 0.0
2017-Oct-13 04:52N 29°45' W 095°06'0 0.0
2017-Oct-12 23:56N 29°45' W 095°06'0 0.1
2017-Oct-12 23:30N 29°45' W 095°06'0 0.0
2017-Oct-12 22:24N 29°45' W 095°06'0 0.1
2017-Oct-12 18:19N 29°46' W 095°05'0 0.0
2017-Oct-12 16:04N 29°46' W 095°05'1 6.2
2017-Oct-12 15:52N 29°45' W 095°06'1 2.0
2017-Oct-12 15:12N 29°46' W 095°05'0 0.3
2017-Oct-12 14:26N 29°46' W 095°06'0 0.0
2017-Oct-12 13:24N 29°46' W 095°06'0 0.0
2017-Oct-12 12:43N 29°46' W 095°06'0 0.0
2017-Oct-12 12:22N 29°46' W 095°06'0 0.0
2017-Oct-12 10:42N 29°46' W 095°06'0 0.0
2017-Oct-12 10:30N 29°46' W 095°06'0 0.2
2017-Oct-12 09:39N 29°46' W 095°05'1 0.2
2017-Oct-12 06:48N 29°45' W 095°06'0 0.0
2017-Oct-12 06:24N 29°45' W 095°06'0 0.0
2017-Oct-12 06:00N 29°45' W 095°06'0 0.0
2017-Oct-12 05:21N 29°45' W 095°06'0 0.0
2017-Oct-12 05:00N 29°45' W 095°06'0 0.0
2017-Oct-12 04:27N 29°45' W 095°06'0 0.0
2017-Oct-12 04:00N 29°45' W 095°06'0 0.0
2017-Oct-12 03:27N 29°45' W 095°06'0 0.0
2017-Oct-12 02:54N 29°45' W 095°06'0 0.0
2017-Oct-12 02:18N 29°45' W 095°06'0 0.0
2017-Oct-12 01:57N 29°45' W 095°06'0 0.1
2017-Oct-12 00:57N 29°46' W 095°06'0 0.1
2017-Oct-11 19:54N 29°46' W 095°05'0 0.1
2017-Oct-11 18:48N 29°46' W 095°05'0 0.0
2017-Oct-10 10:57N 29°45' W 095°06'0 0.0
2017-Oct-10 10:24N 29°45' W 095°06'0 0.0
2017-Oct-10 09:57N 29°45' W 095°06'0 0.0
2017-Oct-10 01:04N 29°45' W 095°06'0 1.5
2017-Oct-10 00:58N 29°45' W 095°06'0 0.1
2017-Oct-09 23:57N 29°45' W 095°06'0 0.0
2017-Oct-09 23:15N 29°45' W 095°06'0 0.0
2017-Oct-09 22:30N 29°45' W 095°06'0 0.0
2017-Oct-09 18:48N 29°45' W 095°06'0 0.0
2017-Oct-09 16:00N 29°45' W 095°06'0 0.0
2017-Oct-09 14:18N 29°45' W 095°06'0 0.0
2017-Oct-09 13:39N 29°45' W 095°06'0 0.0
2017-Oct-09 13:27N 29°45' W 095°06'0 0.0
2017-Oct-09 12:54N 29°45' W 095°06'0 0.0
2017-Oct-09 12:06N 29°45' W 095°06'0 0.1
2017-Oct-09 12:00N 29°45' W 095°06'0 0.0
2017-Oct-09 11:27N 29°45' W 095°06'0 0.0
2017-Oct-09 10:18N 29°45' W 095°06'0 0.0
2017-Oct-09 09:54N 29°45' W 095°06'0 0.1
2017-Oct-09 09:08N 29°45' W 095°06'0 0.5
2017-Oct-09 09:00N 29°45' W 095°06'0 0.0
2017-Oct-09 08:27N 29°45' W 095°06'0 0.0
2017-Oct-09 07:51N 29°45' W 095°06'0 0.0
2017-Oct-09 07:30N 29°45' W 095°06'0 0.0
2017-Oct-09 07:00N 29°45' W 095°06'0 0.0
2017-Oct-09 06:30N 29°45' W 095°06'0 0.0
2017-Oct-09 06:00N 29°45' W 095°06'0 0.0
2017-Oct-09 05:30N 29°45' W 095°06'0 0.0
2017-Oct-09 04:54N 29°45' W 095°06'0 0.0
2017-Oct-09 04:30N 29°45' W 095°06'0 0.0
2017-Oct-09 04:00N 29°45' W 095°06'0 0.0
2017-Oct-09 03:27N 29°45' W 095°06'0 0.0
2017-Oct-09 03:00N 29°45' W 095°06'0 0.0
2017-Oct-09 02:30N 29°45' W 095°06'0 0.0
2017-Oct-09 02:00N 29°45' W 095°06'0 0.0
2017-Oct-09 01:30N 29°45' W 095°06'0 0.0
2017-Oct-09 01:00N 29°45' W 095°06'0 0.0
2017-Oct-09 00:27N 29°45' W 095°06'0 0.1
2017-Oct-09 00:00N 29°45' W 095°06'0 0.0
2017-Oct-08 22:30N 29°45' W 095°06'0 0.1
2017-Oct-08 22:00N 29°46' W 095°06'0 0.0
2017-Oct-08 19:07N 29°45' W 095°06'0 0.3
2017-Oct-08 18:58N 29°45' W 095°06'0 0.0
2017-Oct-08 13:46N 29°46' W 095°06'0 0.0
2017-Oct-08 04:13N 29°46' W 095°06'0 0.7
2017-Oct-08 04:00N 29°45' W 095°06'0 0.1
2017-Oct-08 02:43N 29°45' W 095°06'0 0.0
2017-Oct-08 02:28N 29°45' W 095°06'0 0.0
2017-Oct-08 00:46N 29°45' W 095°06'  

Dump ship's entire track history